Disclaimer

Please do not use the information listed here in-flight or in-navigation, as they are not provided to us by the airports but are provided by volunteers, so they might be outdated.

Search


Regions


Airport information page

Radio informations:
BASTIA TWR - 118.0 MHz
Ground (GND) - 121.825 MHz
BASTIA ATIS - 125.925 MHz
BASTIA APP - 378.5 MHz
BASTIA RADAR APP - 123.825 MHz
BASTIA INFO - 124.725 MHz

Airport informations:
Latitude: 42° 33' 09.59" N
Longitude: 009° 29' 01.43" E
Elevation: 26 feet - 8 meters
Operating hours: 24 hour operations
Operating agency: Civil government, landing fees and diplomatic clearance may be required
Timezone: UTC+1(+2DT) - Last Sunday in March to last Sunday in October
Fuel: Jet A1, without icing nhibitor.

80/87 octane gasoline, leaded, MIL-L-5572F (RED)

100/130 MIL Spec, low lead, aviation gasoline (BLUE)

Runway information:
16/34 - 8266 x 148 feet< - >2519 x 45 meters

Recent METARs:
LFKB 211900Z AUTO VRB02KT CAVOK 10/09 Q1014 TEMPO FEW025TCU
LFKB 211930Z AUTO 22007KT CAVOK 11/08 Q1014 TEMPO FEW025TCU
LFKB 212000Z AUTO VRB03KT CAVOK 12/08 Q1014 TEMPO FEW025TCU

Airport on the map: